sensor_id;sensor_type;location;lat;lon;timestamp;P1;durP1;ratioP1;P2;durP2;ratioP2
1206;SDS011;593;53.184;8.216;2023-04-21T00:00:43;8.45;;;7.65;;
1206;SDS011;593;53.184;8.216;2023-04-21T00:03:09;11.97;;;9.27;;
1206;SDS011;593;53.184;8.216;2023-04-21T00:05:34;9.13;;;7.90;;
1206;SDS011;593;53.184;8.216;2023-04-21T00:07:59;13.20;;;9.27;;
1206;SDS011;593;53.184;8.216;2023-04-21T00:10:25;10.00;;;8.07;;
1206;SDS011;593;53.184;8.216;2023-04-21T00:12:50;11.40;;;8.27;;
1206;SDS011;593;53.184;8.216;2023-04-21T00:15:15;11.50;;;8.80;;
1206;SDS011;593;53.184;8.216;2023-04-21T00:17:40;9.60;;;8.67;;
1206;SDS011;593;53.184;8.216;2023-04-21T00:20:06;15.07;;;9.53;;
1206;SDS011;593;53.184;8.216;2023-04-21T00:22:33;11.05;;;8.82;;
1206;SDS011;593;53.184;8.216;2023-04-21T00:24:59;9.60;;;8.60;;
1206;SDS011;593;53.184;8.216;2023-04-21T00:27:24;11.20;;;8.40;;
1206;SDS011;593;53.184;8.216;2023-04-21T00:29:49;13.47;;;8.77;;
1206;SDS011;593;53.184;8.216;2023-04-21T00:32:14;10.47;;;8.30;;
1206;SDS011;593;53.184;8.216;2023-04-21T00:34:40;11.43;;;8.90;;
1206;SDS011;593;53.184;8.216;2023-04-21T00:37:05;9.57;;;8.00;;
1206;SDS011;593;53.184;8.216;2023-04-21T00:39:30;9.80;;;8.90;;
1206;SDS011;593;53.184;8.216;2023-04-21T00:41:56;11.80;;;9.93;;
1206;SDS011;593;53.184;8.216;2023-04-21T00:44:21;10.37;;;8.90;;
1206;SDS011;593;53.184;8.216;2023-04-21T00:46:46;10.70;;;9.13;;
1206;SDS011;593;53.184;8.216;2023-04-21T00:49:12;10.75;;;8.68;;
1206;SDS011;593;53.184;8.216;2023-04-21T00:51:38;10.73;;;9.47;;
1206;SDS011;593;53.184;8.216;2023-04-21T00:54:05;10.32;;;8.15;;
1206;SDS011;593;53.184;8.216;2023-04-21T00:56:31;11.50;;;9.27;;
1206;SDS011;593;53.184;8.216;2023-04-21T00:58:58;14.02;;;8.70;;
1206;SDS011;593;53.184;8.216;2023-04-21T01:01:25;13.25;;;9.10;;
1206;SDS011;593;53.184;8.216;2023-04-21T01:03:53;10.20;;;8.83;;
1206;SDS011;593;53.184;8.216;2023-04-21T01:06:20;12.82;;;9.60;;
1206;SDS011;593;53.184;8.216;2023-04-21T01:08:46;11.80;;;9.00;;
1206;SDS011;593;53.184;8.216;2023-04-21T01:11:12;11.38;;;9.50;;
1206;SDS011;593;53.184;8.216;2023-04-21T01:13:38;13.30;;;9.63;;
1206;SDS011;593;53.184;8.216;2023-04-21T01:16:04;12.40;;;11.20;;
1206;SDS011;593;53.184;8.216;2023-04-21T01:18:31;14.35;;;10.68;;
1206;SDS011;593;53.184;8.216;2023-04-21T01:20:57;20.80;;;12.53;;
1206;SDS011;593;53.184;8.216;2023-04-21T01:23:23;13.13;;;11.10;;
1206;SDS011;593;53.184;8.216;2023-04-21T01:25:49;14.33;;;10.63;;
1206;SDS011;593;53.184;8.216;2023-04-21T01:28:20;12.95;;;11.52;;
1206;SDS011;593;53.184;8.216;2023-04-21T01:30:46;15.47;;;12.00;;
1206;SDS011;593;53.184;8.216;2023-04-21T01:33:11;16.37;;;11.20;;
1206;SDS011;593;53.184;8.216;2023-04-21T01:35:37;17.50;;;15.03;;
1206;SDS011;593;53.184;8.216;2023-04-21T01:38:02;12.47;;;10.67;;
1206;SDS011;593;53.184;8.216;2023-04-21T01:40:27;13.77;;;11.30;;
1206;SDS011;593;53.184;8.216;2023-04-21T01:42:53;15.43;;;12.10;;
1206;SDS011;593;53.184;8.216;2023-04-21T01:45:18;15.93;;;12.13;;
1206;SDS011;593;53.184;8.216;2023-04-21T01:47:43;12.27;;;10.97;;
1206;SDS011;593;53.184;8.216;2023-04-21T01:50:09;11.73;;;10.50;;
1206;SDS011;593;53.184;8.216;2023-04-21T01:52:34;14.53;;;11.60;;
1206;SDS011;593;53.184;8.216;2023-04-21T01:55:00;12.87;;;11.10;;
1206;SDS011;593;53.184;8.216;2023-04-21T01:57:26;14.73;;;11.80;;
1206;SDS011;593;53.184;8.216;2023-04-21T01:59:51;13.90;;;11.70;;
1206;SDS011;593;53.184;8.216;2023-04-21T02:02:16;16.80;;;11.40;;
1206;SDS011;593;53.184;8.216;2023-04-21T02:04:42;19.33;;;11.93;;
1206;SDS011;593;53.184;8.216;2023-04-21T02:07:07;12.17;;;10.17;;
1206;SDS011;593;53.184;8.216;2023-04-21T02:09:32;11.40;;;9.80;;
1206;SDS011;593;53.184;8.216;2023-04-21T02:11:58;13.80;;;10.20;;
1206;SDS011;593;53.184;8.216;2023-04-21T02:14:24;12.00;;;10.80;;
1206;SDS011;593;53.184;8.216;2023-04-21T02:16:50;14.50;;;11.60;;
1206;SDS011;593;53.184;8.216;2023-04-21T02:19:15;13.10;;;11.30;;
1206;SDS011;593;53.184;8.216;2023-04-21T02:21:40;14.90;;;11.10;;
1206;SDS011;593;53.184;8.216;2023-04-21T02:24:05;11.97;;;10.73;;
1206;SDS011;593;53.184;8.216;2023-04-21T02:26:31;12.17;;;10.37;;
1206;SDS011;593;53.184;8.216;2023-04-21T02:28:56;14.27;;;11.30;;
1206;SDS011;593;53.184;8.216;2023-04-21T02:31:21;16.30;;;10.23;;
1206;SDS011;593;53.184;8.216;2023-04-21T02:33:47;11.37;;;10.27;;
1206;SDS011;593;53.184;8.216;2023-04-21T02:36:12;15.53;;;10.60;;
1206;SDS011;593;53.184;8.216;2023-04-21T02:38:37;15.93;;;10.70;;
1206;SDS011;593;53.184;8.216;2023-04-21T02:41:03;12.00;;;9.80;;
1206;SDS011;593;53.184;8.216;2023-04-21T02:43:28;12.27;;;10.40;;
1206;SDS011;593;53.184;8.216;2023-04-21T02:45:53;11.37;;;9.50;;
1206;SDS011;593;53.184;8.216;2023-04-21T02:48:18;17.57;;;11.00;;
1206;SDS011;593;53.184;8.216;2023-04-21T02:50:47;11.27;;;10.10;;
1206;SDS011;593;53.184;8.216;2023-04-21T02:53:13;11.93;;;9.80;;
1206;SDS011;593;53.184;8.216;2023-04-21T02:55:39;15.67;;;10.23;;
1206;SDS011;593;53.184;8.216;2023-04-21T02:58:04;14.13;;;9.67;;
1206;SDS011;593;53.184;8.216;2023-04-21T03:00:30;12.37;;;9.60;;
1206;SDS011;593;53.184;8.216;2023-04-21T03:02:55;11.77;;;10.53;;
1206;SDS011;593;53.184;8.216;2023-04-21T03:05:20;15.03;;;10.20;;
1206;SDS011;593;53.184;8.216;2023-04-21T03:07:46;12.60;;;9.33;;
1206;SDS011;593;53.184;8.216;2023-04-21T03:10:11;11.90;;;9.07;;
1206;SDS011;593;53.184;8.216;2023-04-21T03:12:36;10.07;;;8.97;;
1206;SDS011;593;53.184;8.216;2023-04-21T03:15:02;12.10;;;9.33;;
1206;SDS011;593;53.184;8.216;2023-04-21T03:17:28;14.13;;;10.48;;
1206;SDS011;593;53.184;8.216;2023-04-21T03:19:53;10.97;;;9.33;;
1206;SDS011;593;53.184;8.216;2023-04-21T03:22:18;10.20;;;9.27;;
1206;SDS011;593;53.184;8.216;2023-04-21T03:24:44;9.43;;;8.53;;
1206;SDS011;593;53.184;8.216;2023-04-21T03:27:09;10.40;;;8.70;;
1206;SDS011;593;53.184;8.216;2023-04-21T03:29:35;10.40;;;9.13;;
1206;SDS011;593;53.184;8.216;2023-04-21T03:32:00;12.67;;;9.50;;
1206;SDS011;593;53.184;8.216;2023-04-21T03:34:26;11.00;;;8.80;;
1206;SDS011;593;53.184;8.216;2023-04-21T03:36:51;12.77;;;9.13;;
1206;SDS011;593;53.184;8.216;2023-04-21T03:39:17;12.93;;;10.10;;
1206;SDS011;593;53.184;8.216;2023-04-21T03:41:42;14.60;;;8.50;;
1206;SDS011;593;53.184;8.216;2023-04-21T03:44:10;9.02;;;7.95;;
1206;SDS011;593;53.184;8.216;2023-04-21T03:46:36;12.83;;;8.53;;
1206;SDS011;593;53.184;8.216;2023-04-21T03:49:01;10.90;;;9.77;;
1206;SDS011;593;53.184;8.216;2023-04-21T03:51:26;11.50;;;9.30;;
1206;SDS011;593;53.184;8.216;2023-04-21T03:53:52;10.70;;;9.13;;
1206;SDS011;593;53.184;8.216;2023-04-21T03:56:17;9.23;;;7.50;;
1206;SDS011;593;53.184;8.216;2023-04-21T03:58:42;12.87;;;8.80;;
1206;SDS011;593;53.184;8.216;2023-04-21T04:01:08;14.70;;;9.87;;
1206;SDS011;593;53.184;8.216;2023-04-21T04:03:33;14.13;;;9.50;;
1206;SDS011;593;53.184;8.216;2023-04-21T04:05:58;10.13;;;8.23;;
1206;SDS011;593;53.184;8.216;2023-04-21T04:08:24;10.77;;;8.20;;
1206;SDS011;593;53.184;8.216;2023-04-21T04:10:49;10.10;;;8.37;;
1206;SDS011;593;53.184;8.216;2023-04-21T04:13:15;9.63;;;8.63;;
1206;SDS011;593;53.184;8.216;2023-04-21T04:15:40;11.27;;;8.80;;
1206;SDS011;593;53.184;8.216;2023-04-21T04:18:05;9.97;;;7.53;;
1206;SDS011;593;53.184;8.216;2023-04-21T04:20:31;10.77;;;8.23;;
1206;SDS011;593;53.184;8.216;2023-04-21T04:22:56;11.30;;;8.97;;
1206;SDS011;593;53.184;8.216;2023-04-21T04:25:21;15.10;;;10.50;;
1206;SDS011;593;53.184;8.216;2023-04-21T04:27:47;9.63;;;8.57;;
1206;SDS011;593;53.184;8.216;2023-04-21T04:30:14;10.80;;;8.15;;
1206;SDS011;593;53.184;8.216;2023-04-21T04:32:40;9.77;;;8.27;;
1206;SDS011;593;53.184;8.216;2023-04-21T04:35:05;17.77;;;8.67;;
1206;SDS011;593;53.184;8.216;2023-04-21T04:37:31;8.87;;;7.97;;
1206;SDS011;593;53.184;8.216;2023-04-21T04:39:58;10.40;;;7.45;;
1206;SDS011;593;53.184;8.216;2023-04-21T04:42:24;10.50;;;8.60;;
1206;SDS011;593;53.184;8.216;2023-04-21T04:44:52;14.00;;;8.70;;
1206;SDS011;593;53.184;8.216;2023-04-21T04:47:17;7.90;;;7.05;;
1206;SDS011;593;53.184;8.216;2023-04-21T04:49:43;11.80;;;9.20;;
1206;SDS011;593;53.184;8.216;2023-04-21T04:52:08;12.83;;;8.97;;
1206;SDS011;593;53.184;8.216;2023-04-21T04:54:33;10.00;;;7.93;;
1206;SDS011;593;53.184;8.216;2023-04-21T04:56:59;9.07;;;7.23;;
1206;SDS011;593;53.184;8.216;2023-04-21T04:59:24;11.33;;;7.70;;
1206;SDS011;593;53.184;8.216;2023-04-21T05:01:50;12.23;;;7.70;;
1206;SDS011;593;53.184;8.216;2023-04-21T05:04:15;8.80;;;7.90;;
1206;SDS011;593;53.184;8.216;2023-04-21T05:06:41;12.40;;;8.90;;
1206;SDS011;593;53.184;8.216;2023-04-21T05:09:06;8.93;;;8.10;;
1206;SDS011;593;53.184;8.216;2023-04-21T05:11:32;8.93;;;7.73;;
1206;SDS011;593;53.184;8.216;2023-04-21T05:13:58;9.10;;;8.20;;
1206;SDS011;593;53.184;8.216;2023-04-21T05:16:23;10.80;;;7.10;;
1206;SDS011;593;53.184;8.216;2023-04-21T05:18:48;9.50;;;8.20;;
1206;SDS011;593;53.184;8.216;2023-04-21T05:21:26;12.18;;;8.20;;
1206;SDS011;593;53.184;8.216;2023-04-21T05:23:55;12.50;;;8.30;;
1206;SDS011;593;53.184;8.216;2023-04-21T05:26:22;8.67;;;7.77;;
1206;SDS011;593;53.184;8.216;2023-04-21T05:28:48;10.65;;;8.75;;
1206;SDS011;593;53.184;8.216;2023-04-21T05:31:14;15.83;;;8.90;;
1206;SDS011;593;53.184;8.216;2023-04-21T05:33:39;13.97;;;8.90;;
1206;SDS011;593;53.184;8.216;2023-04-21T05:36:08;8.60;;;7.47;;
1206;SDS011;593;53.184;8.216;2023-04-21T05:38:34;8.73;;;7.80;;
1206;SDS011;593;53.184;8.216;2023-04-21T05:41:00;9.53;;;8.53;;
1206;SDS011;593;53.184;8.216;2023-04-21T05:43:31;10.75;;;8.60;;
1206;SDS011;593;53.184;8.216;2023-04-21T05:46:01;9.30;;;8.07;;
1206;SDS011;593;53.184;8.216;2023-04-21T05:48:27;9.23;;;6.53;;
1206;SDS011;593;53.184;8.216;2023-04-21T05:50:55;9.82;;;8.82;;
1206;SDS011;593;53.184;8.216;2023-04-21T05:53:20;10.83;;;8.37;;
1206;SDS011;593;53.184;8.216;2023-04-21T05:55:47;9.10;;;7.85;;
1206;SDS011;593;53.184;8.216;2023-04-21T05:58:13;11.90;;;9.00;;
1206;SDS011;593;53.184;8.216;2023-04-21T06:00:38;8.30;;;7.50;;
1206;SDS011;593;53.184;8.216;2023-04-21T06:03:03;18.10;;;8.07;;
1206;SDS011;593;53.184;8.216;2023-04-21T06:05:29;7.80;;;7.10;;
1206;SDS011;593;53.184;8.216;2023-04-21T06:07:54;10.87;;;7.60;;
1206;SDS011;593;53.184;8.216;2023-04-21T06:10:20;13.00;;;7.57;;
1206;SDS011;593;53.184;8.216;2023-04-21T06:12:45;8.90;;;7.97;;
1206;SDS011;593;53.184;8.216;2023-04-21T06:15:11;13.80;;;8.00;;
1206;SDS011;593;53.184;8.216;2023-04-21T06:17:36;11.07;;;7.90;;
1206;SDS011;593;53.184;8.216;2023-04-21T06:20:01;10.10;;;8.00;;
1206;SDS011;593;53.184;8.216;2023-04-21T06:22:28;14.10;;;8.18;;
1206;SDS011;593;53.184;8.216;2023-04-21T06:24:53;9.00;;;7.43;;
1206;SDS011;593;53.184;8.216;2023-04-21T06:27:18;8.47;;;7.67;;
1206;SDS011;593;53.184;8.216;2023-04-21T06:29:44;9.83;;;8.13;;
1206;SDS011;593;53.184;8.216;2023-04-21T06:32:10;12.00;;;8.07;;
1206;SDS011;593;53.184;8.216;2023-04-21T06:34:35;12.37;;;7.13;;
1206;SDS011;593;53.184;8.216;2023-04-21T06:37:01;7.40;;;6.70;;
1206;SDS011;593;53.184;8.216;2023-04-21T06:39:26;9.63;;;7.90;;
1206;SDS011;593;53.184;8.216;2023-04-21T06:41:52;11.40;;;8.30;;
1206;SDS011;593;53.184;8.216;2023-04-21T06:44:17;15.13;;;8.50;;
1206;SDS011;593;53.184;8.216;2023-04-21T06:46:43;11.40;;;7.37;;
1206;SDS011;593;53.184;8.216;2023-04-21T06:49:08;9.93;;;8.17;;
1206;SDS011;593;53.184;8.216;2023-04-21T06:51:34;12.23;;;8.80;;
1206;SDS011;593;53.184;8.216;2023-04-21T06:54:01;9.07;;;7.90;;
1206;SDS011;593;53.184;8.216;2023-04-21T06:56:26;8.63;;;7.03;;
1206;SDS011;593;53.184;8.216;2023-04-21T06:58:52;11.00;;;7.60;;
1206;SDS011;593;53.184;8.216;2023-04-21T07:01:17;9.70;;;7.70;;
1206;SDS011;593;53.184;8.216;2023-04-21T07:03:43;9.80;;;7.87;;
1206;SDS011;593;53.184;8.216;2023-04-21T07:06:08;10.43;;;8.30;;
1206;SDS011;593;53.184;8.216;2023-04-21T07:08:33;11.57;;;8.80;;
1206;SDS011;593;53.184;8.216;2023-04-21T07:10:58;8.33;;;7.53;;
1206;SDS011;593;53.184;8.216;2023-04-21T07:13:24;8.70;;;7.80;;
1206;SDS011;593;53.184;8.216;2023-04-21T07:15:49;11.40;;;7.30;;
1206;SDS011;593;53.184;8.216;2023-04-21T07:18:15;9.10;;;7.17;;
1206;SDS011;593;53.184;8.216;2023-04-21T07:20:40;15.40;;;8.93;;
1206;SDS011;593;53.184;8.216;2023-04-21T07:23:06;9.10;;;7.60;;
1206;SDS011;593;53.184;8.216;2023-04-21T07:25:31;7.87;;;7.07;;
1206;SDS011;593;53.184;8.216;2023-04-21T07:27:56;8.03;;;7.20;;
1206;SDS011;593;53.184;8.216;2023-04-21T07:30:22;8.60;;;7.80;;
1206;SDS011;593;53.184;8.216;2023-04-21T07:32:47;11.37;;;8.60;;
1206;SDS011;593;53.184;8.216;2023-04-21T07:35:12;8.50;;;7.60;;
1206;SDS011;593;53.184;8.216;2023-04-21T07:37:38;10.40;;;7.80;;
1206;SDS011;593;53.184;8.216;2023-04-21T07:40:04;10.90;;;8.03;;
1206;SDS011;593;53.184;8.216;2023-04-21T07:42:33;8.57;;;7.70;;
1206;SDS011;593;53.184;8.216;2023-04-21T07:44:58;11.60;;;8.57;;
1206;SDS011;593;53.184;8.216;2023-04-21T07:47:26;8.57;;;7.70;;
1206;SDS011;593;53.184;8.216;2023-04-21T07:49:51;8.93;;;8.03;;
1206;SDS011;593;53.184;8.216;2023-04-21T07:52:17;8.30;;;6.97;;
1206;SDS011;593;53.184;8.216;2023-04-21T07:54:42;9.47;;;7.60;;
1206;SDS011;593;53.184;8.216;2023-04-21T07:57:07;9.27;;;7.83;;
1206;SDS011;593;53.184;8.216;2023-04-21T07:59:33;8.83;;;7.80;;
1206;SDS011;593;53.184;8.216;2023-04-21T08:01:58;10.43;;;8.30;;
1206;SDS011;593;53.184;8.216;2023-04-21T08:04:23;8.87;;;7.97;;
1206;SDS011;593;53.184;8.216;2023-04-21T08:06:49;14.07;;;7.97;;
1206;SDS011;593;53.184;8.216;2023-04-21T08:09:14;10.80;;;7.93;;
1206;SDS011;593;53.184;8.216;2023-04-21T08:11:40;11.20;;;7.83;;
1206;SDS011;593;53.184;8.216;2023-04-21T08:14:05;10.30;;;7.60;;
1206;SDS011;593;53.184;8.216;2023-04-21T08:16:31;8.80;;;7.90;;
1206;SDS011;593;53.184;8.216;2023-04-21T08:18:56;8.83;;;7.93;;
1206;SDS011;593;53.184;8.216;2023-04-21T08:21:21;8.43;;;7.50;;
1206;SDS011;593;53.184;8.216;2023-04-21T08:23:47;8.53;;;7.73;;
1206;SDS011;593;53.184;8.216;2023-04-21T08:26:13;10.37;;;8.40;;
1206;SDS011;593;53.184;8.216;2023-04-21T08:28:39;8.60;;;7.80;;
1206;SDS011;593;53.184;8.216;2023-04-21T08:31:04;11.63;;;8.03;;
1206;SDS011;593;53.184;8.216;2023-04-21T08:33:30;8.97;;;8.17;;
1206;SDS011;593;53.184;8.216;2023-04-21T08:35:55;9.20;;;7.33;;
1206;SDS011;593;53.184;8.216;2023-04-21T08:38:20;10.57;;;8.00;;
1206;SDS011;593;53.184;8.216;2023-04-21T08:40:46;8.43;;;7.43;;
1206;SDS011;593;53.184;8.216;2023-04-21T08:43:11;9.10;;;7.27;;
1206;SDS011;593;53.184;8.216;2023-04-21T08:45:37;10.37;;;7.63;;
1206;SDS011;593;53.184;8.216;2023-04-21T08:48:03;10.20;;;9.07;;
1206;SDS011;593;53.184;8.216;2023-04-21T08:50:29;8.73;;;7.93;;
1206;SDS011;593;53.184;8.216;2023-04-21T08:52:55;11.20;;;8.70;;
1206;SDS011;593;53.184;8.216;2023-04-21T08:55:27;7.67;;;7.00;;
1206;SDS011;593;53.184;8.216;2023-04-21T08:57:54;8.53;;;7.43;;
1206;SDS011;593;53.184;8.216;2023-04-21T09:00:20;10.83;;;7.57;;
1206;SDS011;593;53.184;8.216;2023-04-21T09:02:52;9.87;;;8.00;;
1206;SDS011;593;53.184;8.216;2023-04-21T09:05:25;10.47;;;7.53;;
1206;SDS011;593;53.184;8.216;2023-04-21T09:08:08;10.33;;;8.13;;
1206;SDS011;593;53.184;8.216;2023-04-21T09:13:08;8.90;;;8.00;;
1206;SDS011;593;53.184;8.216;2023-04-21T09:15:41;9.60;;;8.20;;
1206;SDS011;593;53.184;8.216;2023-04-21T09:18:17;10.00;;;7.63;;
1206;SDS011;593;53.184;8.216;2023-04-21T09:20:46;7.93;;;7.03;;
1206;SDS011;593;53.184;8.216;2023-04-21T09:23:12;7.93;;;7.03;;
1206;SDS011;593;53.184;8.216;2023-04-21T09:25:38;9.60;;;7.30;;
1206;SDS011;593;53.184;8.216;2023-04-21T09:28:11;8.63;;;7.80;;
1206;SDS011;593;53.184;8.216;2023-04-21T09:30:38;9.50;;;8.20;;
1206;SDS011;593;53.184;8.216;2023-04-21T09:33:05;10.50;;;7.10;;
1206;SDS011;593;53.184;8.216;2023-04-21T09:35:34;9.13;;;7.67;;
1206;SDS011;593;53.184;8.216;2023-04-21T09:38:02;9.53;;;8.33;;
1206;SDS011;593;53.184;8.216;2023-04-21T09:40:28;10.83;;;7.83;;
1206;SDS011;593;53.184;8.216;2023-04-21T09:42:54;7.80;;;7.00;;
1206;SDS011;593;53.184;8.216;2023-04-21T09:45:19;8.70;;;7.90;;
1206;SDS011;593;53.184;8.216;2023-04-21T09:47:50;8.47;;;7.23;;
1206;SDS011;593;53.184;8.216;2023-04-21T09:50:22;9.87;;;7.90;;
1206;SDS011;593;53.184;8.216;2023-04-21T09:52:52;10.23;;;8.00;;
1206;SDS011;593;53.184;8.216;2023-04-21T09:55:19;8.97;;;7.40;;
1206;SDS011;593;53.184;8.216;2023-04-21T09:57:48;8.30;;;7.30;;
1206;SDS011;593;53.184;8.216;2023-04-21T10:00:16;9.07;;;7.97;;
1206;SDS011;593;53.184;8.216;2023-04-21T10:02:43;9.23;;;6.70;;
1206;SDS011;593;53.184;8.216;2023-04-21T10:05:12;9.40;;;8.40;;
1206;SDS011;593;53.184;8.216;2023-04-21T10:07:37;9.43;;;8.40;;
1206;SDS011;593;53.184;8.216;2023-04-21T10:10:03;11.87;;;7.50;;
1206;SDS011;593;53.184;8.216;2023-04-21T10:12:32;8.33;;;7.63;;
1206;SDS011;593;53.184;8.216;2023-04-21T10:14:57;8.77;;;7.97;;
1206;SDS011;593;53.184;8.216;2023-04-21T10:17:27;7.97;;;7.17;;
1206;SDS011;593;53.184;8.216;2023-04-21T10:19:53;8.57;;;6.80;;
1206;SDS011;593;53.184;8.216;2023-04-21T10:22:31;7.70;;;7.00;;
1206;SDS011;593;53.184;8.216;2023-04-21T10:24:58;7.83;;;6.97;;
1206;SDS011;593;53.184;8.216;2023-04-21T10:27:41;10.17;;;7.30;;
1206;SDS011;593;53.184;8.216;2023-04-21T10:32:46;7.50;;;6.77;;
1206;SDS011;593;53.184;8.216;2023-04-21T10:35:13;8.40;;;6.87;;
1206;SDS011;593;53.184;8.216;2023-04-21T10:37:41;17.57;;;12.27;;
1206;SDS011;593;53.184;8.216;2023-04-21T10:42:54;9.77;;;7.60;;
1206;SDS011;593;53.184;8.216;2023-04-21T10:45:21;7.97;;;6.93;;
1206;SDS011;593;53.184;8.216;2023-04-21T10:47:49;8.07;;;6.27;;
1206;SDS011;593;53.184;8.216;2023-04-21T10:52:46;9.93;;;6.80;;
1206;SDS011;593;53.184;8.216;2023-04-21T10:55:17;6.77;;;5.80;;
1206;SDS011;593;53.184;8.216;2023-04-21T10:57:44;8.47;;;5.77;;
1206;SDS011;593;53.184;8.216;2023-04-21T11:00:10;7.50;;;6.33;;
1206;SDS011;593;53.184;8.216;2023-04-21T11:02:40;7.33;;;5.83;;
1206;SDS011;593;53.184;8.216;2023-04-21T11:05:06;7.00;;;6.30;;
1206;SDS011;593;53.184;8.216;2023-04-21T11:07:33;5.83;;;5.43;;
1206;SDS011;593;53.184;8.216;2023-04-21T11:09:59;7.30;;;6.67;;
1206;SDS011;593;53.184;8.216;2023-04-21T11:12:30;6.87;;;6.17;;
1206;SDS011;593;53.184;8.216;2023-04-21T11:15:09;11.90;;;6.67;;
1206;SDS011;593;53.184;8.216;2023-04-21T11:17:37;6.63;;;6.03;;
1206;SDS011;593;53.184;8.216;2023-04-21T11:20:04;7.27;;;6.57;;
1206;SDS011;593;53.184;8.216;2023-04-21T11:22:31;12.87;;;6.90;;
1206;SDS011;593;53.184;8.216;2023-04-21T11:24:56;6.40;;;5.80;;
1206;SDS011;593;53.184;8.216;2023-04-21T11:27:24;6.47;;;5.87;;
1206;SDS011;593;53.184;8.216;2023-04-21T11:29:50;7.33;;;6.40;;
1206;SDS011;593;53.184;8.216;2023-04-21T11:32:16;8.27;;;6.80;;
1206;SDS011;593;53.184;8.216;2023-04-21T11:34:42;6.97;;;6.27;;
1206;SDS011;593;53.184;8.216;2023-04-21T11:37:08;7.23;;;6.50;;
1206;SDS011;593;53.184;8.216;2023-04-21T11:39:34;7.40;;;6.80;;
1206;SDS011;593;53.184;8.216;2023-04-21T11:42:00;7.03;;;5.90;;
1206;SDS011;593;53.184;8.216;2023-04-21T11:44:37;6.13;;;5.73;;
1206;SDS011;593;53.184;8.216;2023-04-21T11:47:21;7.00;;;6.10;;
1206;SDS011;593;53.184;8.216;2023-04-21T11:54:59;9.47;;;6.10;;
1206;SDS011;593;53.184;8.216;2023-04-21T11:57:30;6.47;;;5.83;;
1206;SDS011;593;53.184;8.216;2023-04-21T11:59:57;6.37;;;5.60;;
1206;SDS011;593;53.184;8.216;2023-04-21T12:02:23;7.10;;;5.53;;
1206;SDS011;593;53.184;8.216;2023-04-21T12:05:00;6.83;;;5.70;;
1206;SDS011;593;53.184;8.216;2023-04-21T12:07:28;7.57;;;6.47;;
1206;SDS011;593;53.184;8.216;2023-04-21T12:09:55;6.13;;;5.57;;
1206;SDS011;593;53.184;8.216;2023-04-21T12:12:20;6.63;;;5.93;;
1206;SDS011;593;53.184;8.216;2023-04-21T12:14:48;5.67;;;5.27;;
1206;SDS011;593;53.184;8.216;2023-04-21T12:17:14;7.50;;;6.90;;
1206;SDS011;593;53.184;8.216;2023-04-21T12:19:40;6.13;;;5.23;;
1206;SDS011;593;53.184;8.216;2023-04-21T12:22:10;8.00;;;5.37;;
1206;SDS011;593;53.184;8.216;2023-04-21T12:24:36;4.90;;;4.50;;
1206;SDS011;593;53.184;8.216;2023-04-21T12:27:02;6.37;;;4.83;;
1206;SDS011;593;53.184;8.216;2023-04-21T12:29:29;5.07;;;4.63;;
1206;SDS011;593;53.184;8.216;2023-04-21T12:31:54;5.77;;;5.27;;
1206;SDS011;593;53.184;8.216;2023-04-21T12:34:20;5.90;;;5.20;;
1206;SDS011;593;53.184;8.216;2023-04-21T12:36:45;5.57;;;5.03;;
1206;SDS011;593;53.184;8.216;2023-04-21T12:39:11;5.07;;;4.60;;
1206;SDS011;593;53.184;8.216;2023-04-21T12:41:37;5.73;;;5.10;;
1206;SDS011;593;53.184;8.216;2023-04-21T12:44:03;5.83;;;5.10;;
1206;SDS011;593;53.184;8.216;2023-04-21T12:46:28;5.43;;;4.93;;
1206;SDS011;593;53.184;8.216;2023-04-21T12:48:53;5.67;;;5.03;;
1206;SDS011;593;53.184;8.216;2023-04-21T12:51:19;5.47;;;4.97;;
1206;SDS011;593;53.184;8.216;2023-04-21T12:53:45;5.90;;;5.40;;
1206;SDS011;593;53.184;8.216;2023-04-21T12:56:10;6.80;;;5.33;;
1206;SDS011;593;53.184;8.216;2023-04-21T12:58:35;5.93;;;5.43;;
1206;SDS011;593;53.184;8.216;2023-04-21T13:01:01;6.17;;;5.57;;
1206;SDS011;593;53.184;8.216;2023-04-21T13:03:26;5.70;;;4.40;;
1206;SDS011;593;53.184;8.216;2023-04-21T13:05:51;5.43;;;5.00;;
1206;SDS011;593;53.184;8.216;2023-04-21T13:08:17;7.37;;;4.60;;
1206;SDS011;593;53.184;8.216;2023-04-21T13:10:42;6.30;;;5.47;;
1206;SDS011;593;53.184;8.216;2023-04-21T13:13:09;8.83;;;4.80;;
1206;SDS011;593;53.184;8.216;2023-04-21T13:15:35;5.20;;;4.80;;
1206;SDS011;593;53.184;8.216;2023-04-21T13:18:00;4.27;;;3.97;;
1206;SDS011;593;53.184;8.216;2023-04-21T13:20:26;5.13;;;4.73;;
1206;SDS011;593;53.184;8.216;2023-04-21T13:22:51;5.20;;;4.70;;
1206;SDS011;593;53.184;8.216;2023-04-21T13:25:16;6.60;;;5.10;;
1206;SDS011;593;53.184;8.216;2023-04-21T13:27:42;5.03;;;4.10;;
1206;SDS011;593;53.184;8.216;2023-04-21T13:30:09;6.13;;;5.53;;
1206;SDS011;593;53.184;8.216;2023-04-21T13:32:36;6.37;;;4.70;;
1206;SDS011;593;53.184;8.216;2023-04-21T13:35:02;6.60;;;5.10;;
1206;SDS011;593;53.184;8.216;2023-04-21T13:37:32;5.17;;;4.80;;
1206;SDS011;593;53.184;8.216;2023-04-21T13:40:01;5.30;;;4.80;;
1206;SDS011;593;53.184;8.216;2023-04-21T13:42:27;5.40;;;4.90;;
1206;SDS011;593;53.184;8.216;2023-04-21T13:44:55;5.50;;;5.00;;
1206;SDS011;593;53.184;8.216;2023-04-21T13:47:20;6.13;;;5.53;;
1206;SDS011;593;53.184;8.216;2023-04-21T13:49:49;5.27;;;4.77;;
1206;SDS011;593;53.184;8.216;2023-04-21T13:52:15;5.67;;;4.53;;
1206;SDS011;593;53.184;8.216;2023-04-21T13:54:41;4.50;;;4.10;;
1206;SDS011;593;53.184;8.216;2023-04-21T13:57:06;4.57;;;4.23;;
1206;SDS011;593;53.184;8.216;2023-04-21T13:59:31;4.60;;;4.30;;
1206;SDS011;593;53.184;8.216;2023-04-21T14:01:56;4.37;;;4.07;;
1206;SDS011;593;53.184;8.216;2023-04-21T14:04:22;5.60;;;5.10;;
1206;SDS011;593;53.184;8.216;2023-04-21T14:06:47;4.73;;;4.40;;
1206;SDS011;593;53.184;8.216;2023-04-21T14:09:14;4.33;;;3.93;;
1206;SDS011;593;53.184;8.216;2023-04-21T14:11:39;4.50;;;4.10;;
1206;SDS011;593;53.184;8.216;2023-04-21T14:14:05;5.30;;;4.80;;
1206;SDS011;593;53.184;8.216;2023-04-21T14:16:31;5.40;;;4.63;;
1206;SDS011;593;53.184;8.216;2023-04-21T14:18:57;4.77;;;4.37;;
1206;SDS011;593;53.184;8.216;2023-04-21T14:21:22;5.00;;;4.60;;
1206;SDS011;593;53.184;8.216;2023-04-21T14:23:47;6.20;;;4.80;;
1206;SDS011;593;53.184;8.216;2023-04-21T14:26:13;3.93;;;3.63;;
1206;SDS011;593;53.184;8.216;2023-04-21T14:28:38;5.10;;;4.70;;
1206;SDS011;593;53.184;8.216;2023-04-21T14:31:04;6.10;;;4.80;;
1206;SDS011;593;53.184;8.216;2023-04-21T14:33:29;5.03;;;4.63;;
1206;SDS011;593;53.184;8.216;2023-04-21T14:35:57;6.23;;;4.43;;
1206;SDS011;593;53.184;8.216;2023-04-21T14:38:41;5.00;;;4.60;;
1206;SDS011;593;53.184;8.216;2023-04-21T14:41:28;4.50;;;4.10;;
1206;SDS011;593;53.184;8.216;2023-04-21T14:44:08;5.50;;;5.07;;
1206;SDS011;593;53.184;8.216;2023-04-21T14:46:33;4.20;;;3.90;;
1206;SDS011;593;53.184;8.216;2023-04-21T14:49:07;4.90;;;4.50;;
1206;SDS011;593;53.184;8.216;2023-04-21T14:51:33;5.17;;;4.77;;
1206;SDS011;593;53.184;8.216;2023-04-21T14:53:59;4.93;;;4.20;;
1206;SDS011;593;53.184;8.216;2023-04-21T14:56:24;5.23;;;4.27;;
1206;SDS011;593;53.184;8.216;2023-04-21T14:58:49;5.60;;;4.93;;
1206;SDS011;593;53.184;8.216;2023-04-21T15:01:15;5.40;;;4.53;;
1206;SDS011;593;53.184;8.216;2023-04-21T15:03:40;4.80;;;4.40;;
1206;SDS011;593;53.184;8.216;2023-04-21T15:06:18;5.50;;;5.00;;
1206;SDS011;593;53.184;8.216;2023-04-21T15:08:44;5.43;;;5.13;;
1206;SDS011;593;53.184;8.216;2023-04-21T15:11:11;5.53;;;5.03;;
1206;SDS011;593;53.184;8.216;2023-04-21T15:14:03;5.87;;;5.37;;
1206;SDS011;593;53.184;8.216;2023-04-21T15:16:31;11.50;;;6.83;;
1206;SDS011;593;53.184;8.216;2023-04-21T15:19:01;6.30;;;5.80;;
1206;SDS011;593;53.184;8.216;2023-04-21T15:21:37;5.20;;;4.80;;
1206;SDS011;593;53.184;8.216;2023-04-21T15:24:06;5.90;;;5.50;;
1206;SDS011;593;53.184;8.216;2023-04-21T15:26:35;6.13;;;5.67;;
1206;SDS011;593;53.184;8.216;2023-04-21T15:29:01;7.70;;;6.20;;
1206;SDS011;593;53.184;8.216;2023-04-21T15:31:30;8.00;;;5.60;;
1206;SDS011;593;53.184;8.216;2023-04-21T15:34:08;6.37;;;5.87;;